Time;durP1;ratioP1;P1;durP2;ratioP2;P2;SDS_P1;SDS_P2;PMS_P1;PMS_P2;Temp;Humidity;BMP_temperature;BMP_pressure;BME280_temperature;BME280_humidity;BME280_pressure;Samples;Min_cycle;Max_cycle;Signal;HPM_P1;HPM_P2
2023/09/15 00:00:45;;;;;;;0.40;0.30;;;;;;;10.29;73.35;102323.31;5033397;28;20045;-76
2023/09/15 00:03:15;;;;;;;0.82;0.28;;;;;;;10.28;73.58;102318.97;5038259;28;20375;-76
2023/09/15 00:05:43;;;;;;;4.88;0.30;;;;;;;10.28;73.62;102318.97;5033172;28;20064;-74
2023/09/15 00:08:11;;;;;;;2.00;0.20;;;;;;;10.27;73.67;102313.72;5037054;28;20052;-74
2023/09/15 00:10:41;;;;;;;1.13;0.20;;;;;;;10.26;73.60;102318.03;5036456;28;20041;-74
2023/09/15 00:13:08;;;;;;;0.47;0.30;;;;;;;10.25;73.55;102318.06;5037957;28;20497;-75
2023/09/15 00:15:35;;;;;;;0.80;0.20;;;;;;;10.25;73.56;102320.66;5042778;28;20045;-73
2023/09/15 00:18:03;;;;;;;0.20;0.20;;;;;;;10.24;73.33;102319.75;5039639;28;20045;-74
2023/09/15 00:20:30;;;;;;;0.82;0.20;;;;;;;10.23;73.73;102322.38;5037605;28;20136;-74
2023/09/15 00:22:58;;;;;;;1.02;0.30;;;;;;;10.23;73.73;102322.38;5036848;28;20981;-74
2023/09/15 00:25:27;;;;;;;3.60;0.10;;;;;;;10.22;73.88;102321.50;5040595;28;20470;-74
2023/09/15 00:27:57;;;;;;;1.15;0.20;;;;;;;10.21;73.48;102319.75;5035936;28;20045;-73
2023/09/15 00:30:25;;;;;;;0.30;0.22;;;;;;;10.20;73.45;102312.78;5040132;28;20099;-74
2023/09/15 00:32:53;;;;;;;0.30;0.10;;;;;;;10.13;73.56;102303.13;5043084;28;20045;-74
2023/09/15 00:35:22;;;;;;;1.38;0.20;;;;;;;10.18;73.60;102316.25;5041062;28;20059;-73
2023/09/15 00:37:50;;;;;;;0.75;0.20;;;;;;;10.18;73.60;102313.63;5035961;28;20053;-75
2023/09/15 00:40:18;;;;;;;0.88;0.20;;;;;;;10.14;73.35;102312.75;5040544;28;20053;-73
2023/09/15 00:42:46;;;;;;;3.72;0.30;;;;;;;10.16;73.69;102315.34;5037927;28;20059;-74
2023/09/15 00:45:15;;;;;;;3.10;0.20;;;;;;;10.13;73.65;102317.09;5043707;28;20554;-74
2023/09/15 00:47:43;;;;;;;0.30;0.20;;;;;;;10.10;73.66;102314.47;5040256;28;20053;-74
2023/09/15 00:50:13;;;;;;;0.32;0.20;;;;;;;10.11;73.94;102313.59;5041683;28;20466;-74
2023/09/15 00:52:40;;;;;;;0.32;0.20;;;;;;;10.11;73.75;102329.25;5038537;28;20047;-74
2023/09/15 00:55:08;;;;;;;0.65;0.17;;;;;;;10.11;73.62;102323.16;5040634;28;20490;-74
2023/09/15 00:57:37;;;;;;;1.23;0.20;;;;;;;10.10;73.70;102331.84;5040695;28;20045;-73
2023/09/15 01:00:11;;;;;;;0.50;0.20;;;;;;;10.08;73.83;102328.34;5036311;28;20055;-74
2023/09/15 01:02:40;;;;;;;1.08;0.20;;;;;;;10.06;73.66;102322.25;5043336;28;20140;-74
2023/09/15 01:05:08;;;;;;;1.77;0.20;;;;;;;10.07;73.58;102329.19;5043219;28;20055;-73
2023/09/15 01:07:36;;;;;;;0.20;0.10;;;;;;;10.01;73.58;102322.19;5040164;28;20139;-74
2023/09/15 01:10:05;;;;;;;0.20;0.20;;;;;;;10.03;73.80;102320.47;5039148;28;20138;-74
2023/09/15 01:12:33;;;;;;;0.28;0.20;;;;;;;10.02;73.82;102321.34;5038705;28;20085;-74
2023/09/15 01:15:02;;;;;;;0.40;0.20;;;;;;;10.02;73.82;102323.09;5036345;28;20057;-77
2023/09/15 01:17:36;;;;;;;0.30;0.20;;;;;;;10.01;73.71;102326.53;5046337;28;20490;-77
2023/09/15 01:20:09;;;;;;;0.95;0.20;;;;;;;10.00;73.86;102324.81;5039140;28;20482;-77
2023/09/15 01:23:06;;;;;;;0.30;0.10;;;;;;;9.98;73.76;102319.56;5044880;28;20098;-77
2023/09/15 01:25:56;;;;;;;0.22;0.20;;;;;;;9.96;73.74;102321.31;5038959;28;20069;-77
2023/09/15 01:28:43;;;;;;;0.40;0.20;;;;;;;9.95;73.43;102322.13;5041407;28;20236;-77
2023/09/15 01:31:12;;;;;;;0.93;0.20;;;;;;;9.95;73.71;102316.91;5042879;28;20128;-77
2023/09/15 01:33:39;;;;;;;1.25;0.22;;;;;;;9.94;73.96;102306.47;5043486;28;20843;-77
2023/09/15 01:36:06;;;;;;;0.75;0.20;;;;;;;9.80;74.11;102293.31;5044994;28;20052;-78
2023/09/15 01:38:33;;;;;;;2.03;0.20;;;;;;;9.93;73.83;102316.03;5046882;28;20512;-77
2023/09/15 01:41:00;;;;;;;2.70;0.22;;;;;;;9.93;73.93;102312.53;5046532;28;20044;-78
2023/09/15 01:43:27;;;;;;;0.30;0.25;;;;;;;9.93;73.86;102312.53;5044649;28;20049;-76
2023/09/15 01:45:54;;;;;;;1.27;0.20;;;;;;;9.91;74.25;102320.38;5040575;28;20045;-77
2023/09/15 01:48:23;;;;;;;0.20;0.20;;;;;;;9.91;74.10;102312.53;5042742;28;20405;-76
2023/09/15 01:50:52;;;;;;;0.60;0.20;;;;;;;9.90;74.28;102314.28;5038529;28;20052;-76
2023/09/15 01:53:19;;;;;;;1.88;0.50;;;;;;;9.90;74.02;102318.59;5038875;28;20057;-76
2023/09/15 01:55:47;;;;;;;0.70;0.20;;;;;;;9.89;74.12;102330.78;5045432;28;20044;-76
2023/09/15 01:58:14;;;;;;;6.70;0.73;;;;;;;9.88;74.24;102330.78;5034956;28;20045;-76
2023/09/15 02:00:42;;;;;;;3.38;0.20;;;;;;;9.88;74.22;102336.00;5044292;28;20074;-76
2023/09/15 02:03:08;;;;;;;0.28;0.10;;;;;;;9.86;74.33;102330.75;5042892;28;20060;-77
2023/09/15 02:05:37;;;;;;;0.38;0.10;;;;;;;9.83;74.20;102328.13;5040917;28;20045;-76
2023/09/15 02:08:04;;;;;;;1.17;0.20;;;;;;;9.85;74.37;102338.59;5042202;28;20048;-78
2023/09/15 02:10:31;;;;;;;0.20;0.20;;;;;;;9.83;74.16;102338.56;5043385;28;20858;-76
2023/09/15 02:12:58;;;;;;;1.52;0.10;;;;;;;9.83;74.18;102337.69;5037804;28;20059;-76
2023/09/15 02:15:25;;;;;;;0.70;0.20;;;;;;;9.77;74.27;102333.28;5037188;28;20048;-76
2023/09/15 02:17:53;;;;;;;0.60;0.20;;;;;;;9.81;74.31;102349.84;5041242;28;20049;-76
2023/09/15 02:20:20;;;;;;;0.85;0.20;;;;;;;9.81;74.07;102340.28;5036180;28;20450;-77
2023/09/15 02:22:49;;;;;;;0.43;0.10;;;;;;;9.80;74.20;102343.75;5040809;28;20045;-78
2023/09/15 02:25:16;;;;;;;0.43;0.10;;;;;;;9.80;74.43;102333.31;5035848;28;20041;-73
2023/09/15 02:27:43;;;;;;;0.32;0.10;;;;;;;9.80;74.38;102322.00;5039731;28;20138;-73
2023/09/15 02:30:11;;;;;;;1.33;0.30;;;;;;;9.78;74.41;102323.72;5038767;28;20079;-72
2023/09/15 02:32:37;;;;;;;1.42;0.28;;;;;;;9.78;74.38;102316.75;5039146;28;20055;-74
2023/09/15 02:35:05;;;;;;;1.65;0.17;;;;;;;9.77;74.19;102312.41;5040805;28;20049;-73
2023/09/15 02:37:32;;;;;;;2.60;0.20;;;;;;;9.77;74.09;102295.88;5036851;28;20079;-74
2023/09/15 02:40:00;;;;;;;0.63;0.20;;;;;;;9.77;74.21;102298.50;5038125;28;20045;-73
2023/09/15 02:42:27;;;;;;;0.65;0.20;;;;;;;9.76;74.72;102300.25;5036234;28;20490;-73
2023/09/15 02:44:54;;;;;;;0.73;0.20;;;;;;;9.76;74.71;102297.63;5031179;28;20417;-73
2023/09/15 02:47:21;;;;;;;0.20;0.10;;;;;;;9.76;74.44;102296.72;5039660;28;20041;-73
2023/09/15 02:49:48;;;;;;;0.50;0.20;;;;;;;9.75;74.84;102293.25;5037084;28;20041;-73
2023/09/15 02:52:14;;;;;;;0.73;0.15;;;;;;;9.75;74.64;102297.59;5038295;28;20041;-73
2023/09/15 02:54:41;;;;;;;1.23;0.20;;;;;;;9.74;74.91;102306.31;5041403;28;20049;-76
2023/09/15 02:57:10;;;;;;;2.35;0.20;;;;;;;9.75;74.85;102308.03;5038853;28;20049;-76
2023/09/15 02:59:36;;;;;;;0.43;0.10;;;;;;;9.74;74.79;102301.09;5040825;28;20493;-75
2023/09/15 03:02:03;;;;;;;2.28;0.20;;;;;;;9.73;75.08;102304.53;5038266;28;20595;-76
2023/09/15 03:04:30;;;;;;;0.45;0.20;;;;;;;9.74;75.08;102301.94;5038468;28;20053;-76
2023/09/15 03:06:57;;;;;;;0.30;0.20;;;;;;;9.73;74.85;102294.09;5040093;28;20048;-75
2023/09/15 03:09:24;;;;;;;0.98;0.10;;;;;;;9.73;75.09;102302.78;5037945;28;20041;-76
2023/09/15 03:11:51;;;;;;;0.20;0.10;;;;;;;9.73;75.00;102304.53;5037597;28;20048;-75
2023/09/15 03:14:19;;;;;;;0.20;0.10;;;;;;;9.74;74.99;102306.31;5039811;28;20489;-75
2023/09/15 03:16:46;;;;;;;0.30;0.20;;;;;;;9.70;75.16;102289.72;5040324;28;20048;-75
2023/09/15 03:19:13;;;;;;;0.28;0.10;;;;;;;9.73;75.34;102299.31;5039136;28;20049;-76
2023/09/15 03:21:40;;;;;;;0.25;0.10;;;;;;;9.74;75.31;102303.69;5036431;28;20049;-75
2023/09/15 03:24:09;;;;;;;0.30;0.10;;;;;;;9.73;75.56;102299.31;5037009;28;20061;-76
2023/09/15 03:26:35;;;;;;;0.20;0.10;;;;;;;9.73;75.20;102294.97;5039926;28;20040;-76
2023/09/15 03:29:02;;;;;;;0.20;0.20;;;;;;;9.73;75.27;102294.09;5038309;28;20047;-75
2023/09/15 03:31:31;;;;;;;0.43;0.20;;;;;;;9.73;75.32;102288.88;5034694;28;20486;-75
2023/09/15 03:33:57;;;;;;;0.28;0.10;;;;;;;9.73;75.04;102297.56;5038134;28;20051;-73
2023/09/15 03:36:26;;;;;;;0.20;0.10;;;;;;;9.74;75.11;102299.34;5036050;28;20045;-73
2023/09/15 03:38:53;;;;;;;0.30;0.17;;;;;;;9.73;75.12;102309.75;5037456;28;20533;-74
2023/09/15 03:41:19;;;;;;;1.27;0.10;;;;;;;9.73;75.22;102309.75;5040776;28;20045;-73
2023/09/15 03:43:46;;;;;;;0.20;0.20;;;;;;;9.75;75.65;102316.72;5037230;28;20050;-74
2023/09/15 03:46:13;;;;;;;1.70;0.05;;;;;;;9.74;75.71;102308.91;5039104;28;20064;-75
2023/09/15 03:48:41;;;;;;;0.20;0.10;;;;;;;9.75;75.83;102302.81;5041303;28;20053;-74
2023/09/15 03:51:08;;;;;;;0.10;0.10;;;;;;;9.74;75.63;102309.78;5041487;28;20135;-73
2023/09/15 03:53:36;;;;;;;0.10;0.10;;;;;;;9.74;75.89;102314.13;5040262;28;20776;-75
2023/09/15 03:56:03;;;;;;;2.00;0.10;;;;;;;9.74;75.75;102312.38;5039368;28;20056;-74
2023/09/15 03:58:30;;;;;;;0.10;0.10;;;;;;;9.75;75.54;102306.28;5043511;28;20485;-74
2023/09/15 04:00:57;;;;;;;0.10;0.10;;;;;;;9.75;75.96;102316.72;5035320;28;20052;-73
2023/09/15 04:03:24;;;;;;;0.10;0.10;;;;;;;9.76;75.77;102315.00;5041218;28;20057;-75
2023/09/15 04:05:53;;;;;;;0.20;0.10;;;;;;;9.76;75.62;102315.91;5034755;28;20456;-74
2023/09/15 04:08:19;;;;;;;0.40;0.10;;;;;;;9.77;76.11;102321.97;5042471;28;20600;-76
2023/09/15 04:10:46;;;;;;;1.50;0.10;;;;;;;9.77;75.93;102322.84;5042982;28;20403;-75
2023/09/15 04:13:13;;;;;;;0.60;0.10;;;;;;;9.76;75.67;102322.81;5038212;28;20505;-76
2023/09/15 04:15:40;;;;;;;0.63;0.10;;;;;;;9.76;75.93;102326.34;5039976;28;20052;-77
2023/09/15 04:18:08;;;;;;;0.10;0.10;;;;;;;9.77;75.74;102332.44;5042256;28;20044;-76
2023/09/15 04:20:36;;;;;;;1.95;0.20;;;;;;;9.78;76.00;102331.56;5037926;28;20103;-76
2023/09/15 04:23:05;;;;;;;1.55;0.63;;;;;;;9.78;75.88;102334.16;5039975;28;20038;-76
2023/09/15 04:25:32;;;;;;;0.75;0.10;;;;;;;9.78;76.42;102340.25;5042111;28;20114;-76
2023/09/15 04:27:59;;;;;;;1.90;0.10;;;;;;;9.78;76.23;102342.00;5042825;28;20127;-76
2023/09/15 04:30:26;;;;;;;0.32;0.20;;;;;;;9.78;76.33;102340.25;5043498;28;20120;-76
2023/09/15 04:32:53;;;;;;;0.22;0.10;;;;;;;9.79;76.15;102330.69;5045688;28;20056;-75
2023/09/15 04:35:20;;;;;;;0.20;0.10;;;;;;;9.79;76.25;102328.06;5040017;28;20055;-78
2023/09/15 04:37:46;;;;;;;0.22;0.10;;;;;;;9.80;76.19;102324.63;5038359;28;20045;-75
2023/09/15 04:40:15;;;;;;;0.60;0.10;;;;;;;9.81;76.45;102327.22;5040673;28;20041;-76
2023/09/15 04:42:42;;;;;;;0.50;0.08;;;;;;;9.82;76.37;102333.34;5038611;28;20628;-75
2023/09/15 04:45:10;;;;;;;0.10;0.03;;;;;;;9.82;76.36;102328.13;5038113;28;20041;-74
2023/09/15 04:47:40;;;;;;;2.28;0.32;;;;;;;9.84;76.35;102321.16;5042984;28;20094;-74
2023/09/15 04:50:09;;;;;;;1.00;0.20;;;;;;;9.85;76.70;102321.19;5041579;28;20617;-74
2023/09/15 04:52:36;;;;;;;2.60;0.15;;;;;;;9.87;76.82;102329.03;5037609;28;20059;-76
2023/09/15 04:55:03;;;;;;;0.17;0.10;;;;;;;9.87;77.00;102332.50;5036379;28;20483;-75
2023/09/15 04:57:32;;;;;;;1.75;0.30;;;;;;;9.88;77.06;102325.56;5037115;28;20306;-74
2023/09/15 04:59:59;;;;;;;0.20;0.20;;;;;;;9.90;77.17;102326.44;5041059;28;20045;-76
2023/09/15 05:02:30;;;;;;;0.17;0.10;;;;;;;9.91;77.04;102341.25;5041802;28;20729;-74
2023/09/15 05:04:57;;;;;;;0.10;0.00;;;;;;;9.92;77.24;102327.34;5039507;28;20045;-75
2023/09/15 05:07:24;;;;;;;0.20;0.10;;;;;;;9.93;77.56;102334.28;5036054;28;20055;-75
2023/09/15 05:09:51;;;;;;;1.13;0.10;;;;;;;9.95;77.55;102335.19;5041311;28;20059;-74
2023/09/15 05:12:18;;;;;;;0.70;0.20;;;;;;;9.96;77.64;102329.13;5040362;28;20041;-74
2023/09/15 05:14:47;;;;;;;0.10;0.10;;;;;;;9.98;77.75;102324.78;5042601;28;20563;-75
2023/09/15 05:17:14;;;;;;;0.30;0.10;;;;;;;10.02;78.33;102333.53;5039222;28;20049;-74
2023/09/15 05:19:41;;;;;;;0.68;0.05;;;;;;;10.03;78.66;102338.75;5040037;28;20227;-74
2023/09/15 05:22:08;;;;;;;0.50;0.20;;;;;;;10.04;78.71;102327.44;5030759;28;20053;-74
2023/09/15 05:24:35;;;;;;;0.52;0.00;;;;;;;10.04;79.43;102327.44;5038391;28;20065;-75
2023/09/15 05:27:02;;;;;;;0.52;0.20;;;;;;;10.12;79.45;102325.75;5038657;28;20056;-75
2023/09/15 05:29:29;;;;;;;0.17;0.10;;;;;;;10.17;79.93;102324.94;5037377;28;20057;-75
2023/09/15 05:31:57;;;;;;;1.17;0.10;;;;;;;10.21;79.94;102321.47;5038328;28;20713;-76
2023/09/15 05:34:24;;;;;;;4.22;0.13;;;;;;;10.25;80.13;102315.44;5035327;28;20486;-73
2023/09/15 05:36:52;;;;;;;3.13;0.20;;;;;;;10.29;80.33;102318.09;5039632;28;20099;-74
2023/09/15 05:39:19;;;;;;;3.90;2.20;;;;;;;10.35;80.67;102318.13;5038835;28;20685;-75
2023/09/15 05:41:46;;;;;;;4.88;3.42;;;;;;;10.40;80.77;102318.19;5040053;28;20053;-74
2023/09/15 05:44:12;;;;;;;2.13;1.55;;;;;;;10.44;81.23;102317.31;5036508;28;20041;-74
2023/09/15 05:46:39;;;;;;;3.53;0.77;;;;;;;10.50;81.41;102313.88;5038219;28;20056;-75
2023/09/15 05:49:08;;;;;;;4.47;0.80;;;;;;;10.56;81.59;102330.50;5040246;28;20056;-74
2023/09/15 05:51:35;;;;;;;0.40;0.40;;;;;;;10.62;81.77;102334.00;5042783;28;20045;-74
2023/09/15 05:54:02;;;;;;;0.40;0.30;;;;;;;10.67;81.59;102329.66;5034684;28;20060;-72
2023/09/15 05:56:29;;;;;;;0.28;0.20;;;;;;;10.73;81.70;102334.94;5035646;28;20057;-73
2023/09/15 05:58:58;;;;;;;0.40;0.20;;;;;;;10.77;82.12;102337.59;5034288;28;20036;-73
2023/09/15 06:01:25;;;;;;;0.38;0.28;;;;;;;10.84;81.94;102342.84;5036028;28;20473;-73
2023/09/15 06:03:52;;;;;;;0.70;0.20;;;;;;;10.89;82.31;102344.63;5036770;28;20633;-73
2023/09/15 06:06:20;;;;;;;0.25;0.20;;;;;;;10.95;82.76;102342.03;5040242;28;20040;-73
2023/09/15 06:08:47;;;;;;;0.95;0.20;;;;;;;11.02;82.78;102346.44;5033562;28;20041;-72
2023/09/15 06:11:14;;;;;;;0.35;0.10;;;;;;;11.09;82.78;102346.44;5036526;28;20052;-73
2023/09/15 06:13:42;;;;;;;0.20;0.20;;;;;;;11.12;83.06;102336.00;5037664;28;20045;-73
2023/09/15 06:16:09;;;;;;;2.03;1.23;;;;;;;11.22;83.26;102332.56;5037168;28;20045;-73
2023/09/15 06:18:36;;;;;;;0.55;0.10;;;;;;;11.30;83.28;102333.47;5036690;28;20057;-73
2023/09/15 06:21:03;;;;;;;0.95;0.20;;;;;;;11.37;83.25;102329.13;5035543;28;20056;-72
2023/09/15 06:23:31;;;;;;;1.25;0.30;;;;;;;11.44;83.46;102321.31;5038297;28;20049;-74
2023/09/15 06:25:58;;;;;;;1.15;0.20;;;;;;;11.52;83.58;102338.75;5038602;28;20446;-74
2023/09/15 06:28:25;;;;;;;0.40;0.20;;;;;;;11.59;83.42;102336.16;5038710;28;20422;-75
2023/09/15 06:30:52;;;;;;;4.32;0.20;;;;;;;11.66;83.75;102335.31;5038773;28;20140;-74
2023/09/15 06:33:19;;;;;;;2.47;0.20;;;;;;;11.73;83.76;102332.72;5037308;28;20045;-74
2023/09/15 06:35:47;;;;;;;1.65;0.35;;;;;;;11.80;83.76;102340.56;5037950;28;20482;-75
2023/09/15 06:38:14;;;;;;;3.83;0.30;;;;;;;11.87;83.96;102342.38;5037951;28;20045;-75
2023/09/15 06:40:42;;;;;;;1.85;0.30;;;;;;;11.96;84.02;102332.78;5034666;28;20060;-76
2023/09/15 06:43:09;;;;;;;1.67;0.30;;;;;;;12.03;84.10;102338.00;5040798;28;20798;-73
2023/09/15 06:45:36;;;;;;;0.57;0.13;;;;;;;12.10;84.18;102338.91;5039530;28;20037;-73
2023/09/15 06:48:03;;;;;;;1.05;0.30;;;;;;;12.17;84.45;102335.38;5037739;28;20045;-72
2023/09/15 06:50:30;;;;;;;1.33;0.22;;;;;;;12.26;84.61;102339.75;5033601;28;20056;-72
2023/09/15 06:52:57;;;;;;;1.15;0.40;;;;;;;12.33;84.48;102334.50;5038578;28;20128;-76
2023/09/15 06:55:24;;;;;;;0.80;0.40;;;;;;;12.34;84.58;102332.75;5041962;28;20048;-77
2023/09/15 06:57:53;;;;;;;1.08;0.40;;;;;;;12.49;84.68;102337.09;5039646;28;20048;-76
2023/09/15 07:00:20;;;;;;;6.90;1.30;;;;;;;12.57;84.94;102345.84;5034025;28;20056;-76
2023/09/15 07:02:46;;;;;;;2.45;0.40;;;;;;;12.66;84.88;102340.56;5039792;28;20053;-74
2023/09/15 07:05:13;;;;;;;4.15;0.47;;;;;;;12.75;85.10;102340.56;5036656;28;20049;-73
2023/09/15 07:07:40;;;;;;;1.88;0.40;;;;;;;12.83;85.02;102341.44;5039046;28;20072;-73
2023/09/15 07:10:09;;;;;;;1.08;0.35;;;;;;;12.93;85.17;102341.38;5041051;28;20112;-74
2023/09/15 07:12:35;;;;;;;1.92;0.40;;;;;;;13.01;85.00;102343.09;5036990;28;20056;-73
2023/09/15 07:15:05;;;;;;;2.08;0.50;;;;;;;13.11;85.44;102336.06;5037691;28;20049;-75
2023/09/15 07:17:32;;;;;;;0.70;0.30;;;;;;;13.15;85.29;102324.69;5034551;28;20072;-75
2023/09/15 07:19:59;;;;;;;1.55;0.50;;;;;;;13.33;85.30;102341.25;5038939;28;20494;-74
2023/09/15 07:22:27;;;;;;;2.03;0.52;;;;;;;13.40;85.31;102330.69;5043972;28;20056;-74
2023/09/15 07:24:54;;;;;;;0.50;0.30;;;;;;;13.54;85.22;102333.25;5040772;28;20060;-74
2023/09/15 07:27:21;;;;;;;0.93;0.32;;;;;;;13.64;85.05;102334.97;5039440;28;20517;-74
2023/09/15 07:29:51;;;;;;;2.72;0.50;;;;;;;13.77;85.05;102332.25;5040323;28;20049;-75
2023/09/15 07:32:21;;;;;;;1.63;0.40;;;;;;;13.91;84.94;102335.63;5042124;28;20045;-74
2023/09/15 07:34:48;;;;;;;1.08;0.40;;;;;;;14.03;84.67;102335.56;5039807;28;20075;-75
2023/09/15 07:37:15;;;;;;;3.80;0.68;;;;;;;14.15;84.52;102335.47;5039614;28;20049;-73
2023/09/15 07:39:42;;;;;;;3.28;0.40;;;;;;;14.28;84.49;102332.72;5041311;28;20051;-76
2023/09/15 07:42:09;;;;;;;1.38;0.40;;;;;;;14.36;84.07;102330.91;5040984;28;20056;-75
2023/09/15 07:44:37;;;;;;;2.00;0.40;;;;;;;14.52;83.83;102337.78;5036737;28;20052;-76
2023/09/15 07:47:06;;;;;;;3.67;0.40;;;;;;;14.67;83.65;102330.63;5038692;28;20044;-76
2023/09/15 07:49:34;;;;;;;1.77;0.30;;;;;;;14.79;83.46;102325.22;5039624;28;20049;-74
2023/09/15 07:52:01;;;;;;;2.95;0.50;;;;;;;14.92;83.00;102328.59;5035572;28;20052;-75
2023/09/15 07:54:29;;;;;;;0.80;0.32;;;;;;;15.04;82.73;102328.44;5045298;28;20041;-75
2023/09/15 07:56:55;;;;;;;3.80;1.02;;;;;;;15.17;82.37;102323.88;5039373;28;20060;-73
2023/09/15 07:59:22;;;;;;;1.75;0.65;;;;;;;15.26;82.17;102315.88;5040391;28;20041;-73
2023/09/15 08:01:49;;;;;;;4.00;1.50;;;;;;;15.41;80.85;102320.94;5035260;28;20054;-73
2023/09/15 08:04:16;;;;;;;2.58;0.90;;;;;;;15.55;80.30;102314.59;5038262;28;20046;-74
2023/09/15 08:06:44;;;;;;;7.15;3.13;;;;;;;15.69;79.80;102323.22;5042246;28;20052;-73
2023/09/15 08:09:11;;;;;;;34.75;16.38;;;;;;;15.83;79.38;102328.28;5040607;28;20045;-73
2023/09/15 08:11:40;;;;;;;3.30;0.60;;;;;;;15.94;78.72;102327.19;5038067;28;20052;-75
2023/09/15 08:14:07;;;;;;;2.35;1.00;;;;;;;16.07;78.71;102330.50;5040722;28;20045;-76
2023/09/15 08:16:34;;;;;;;1.83;0.50;;;;;;;16.20;77.82;102339.09;5042201;28;20053;-76
2023/09/15 08:19:01;;;;;;;3.75;1.02;;;;;;;16.33;76.83;102335.31;5041900;28;20418;-75
2023/09/15 08:21:28;;;;;;;4.60;1.10;;;;;;;16.46;76.92;102335.13;5035745;28;20045;-74
2023/09/15 08:23:57;;;;;;;4.95;0.70;;;;;;;16.59;76.58;102328.69;5041516;28;20056;-74
2023/09/15 08:26:24;;;;;;;2.00;0.40;;;;;;;16.70;75.72;102334.63;5042660;28;20491;-74
2023/09/15 08:28:51;;;;;;;0.80;0.40;;;;;;;16.80;75.41;102328.34;5038778;28;20051;-74
2023/09/15 08:31:18;;;;;;;1.38;0.50;;;;;;;16.91;74.88;102336.06;5040183;28;20041;-76
2023/09/15 08:33:45;;;;;;;2.40;0.43;;;;;;;16.99;74.28;102336.75;5046403;28;20048;-76
2023/09/15 08:36:12;;;;;;;4.63;0.30;;;;;;;17.03;73.14;102327.00;5040826;28;20964;-76
2023/09/15 08:38:38;;;;;;;2.45;0.45;;;;;;;17.12;72.65;102334.72;5041040;28;20060;-76
2023/09/15 08:41:17;;;;;;;0.75;0.30;;;;;;;17.17;71.55;102318.78;5042302;28;20045;-73
2023/09/15 08:43:44;;;;;;;1.27;0.30;;;;;;;17.22;71.05;102332.78;5039715;28;20052;-75
2023/09/15 08:46:12;;;;;;;0.57;0.50;;;;;;;17.27;70.50;102334.38;5039181;28;20405;-77
2023/09/15 08:48:41;;;;;;;1.75;0.38;;;;;;;17.33;70.63;102327.25;5039153;28;20052;-79
2023/09/15 08:51:08;;;;;;;0.85;0.22;;;;;;;17.38;70.23;102331.53;5041241;28;20574;-79
2023/09/15 08:53:36;;;;;;;1.33;0.40;;;;;;;17.44;69.87;102322.59;5047674;28;20124;-79
2023/09/15 08:56:04;;;;;;;3.05;0.93;;;;;;;17.48;70.14;102329.56;5040042;28;20195;-79
2023/09/15 08:58:34;;;;;;;1.00;0.40;;;;;;;17.52;69.84;102331.22;5045599;28;20053;-79
2023/09/15 09:01:07;;;;;;;1.58;0.30;;;;;;;17.55;70.01;102325.88;5036785;28;20789;-78
2023/09/15 09:03:36;;;;;;;0.70;0.30;;;;;;;17.60;69.29;102317.84;5044079;28;20053;-76
2023/09/15 09:06:04;;;;;;;3.70;0.40;;;;;;;17.61;69.06;102328.34;5041995;28;20618;-76
2023/09/15 09:08:32;;;;;;;0.80;0.68;;;;;;;17.63;68.77;102329.19;5037430;28;20107;-76
2023/09/15 09:10:59;;;;;;;2.03;0.40;;;;;;;17.65;67.57;102327.41;5037882;28;20050;-78
2023/09/15 09:13:27;;;;;;;1.00;0.45;;;;;;;17.67;67.87;102330.00;5037133;28;20486;-78
2023/09/15 09:15:55;;;;;;;0.55;0.30;;;;;;;17.69;67.93;102330.84;5042592;28;20044;-78
2023/09/15 09:18:22;;;;;;;3.30;0.88;;;;;;;17.73;66.87;102332.47;5043710;28;20043;-76
2023/09/15 09:20:49;;;;;;;0.93;0.40;;;;;;;17.76;66.53;102330.66;5040369;28;20053;-75
2023/09/15 09:23:17;;;;;;;0.88;0.30;;;;;;;17.79;65.77;102332.41;5042396;28;20037;-74
2023/09/15 09:25:45;;;;;;;2.25;0.38;;;;;;;17.84;65.77;102329.63;5035231;28;20056;-75
2023/09/15 09:28:12;;;;;;;0.90;0.40;;;;;;;17.86;65.82;102326.03;5036770;28;20049;-75
2023/09/15 09:30:39;;;;;;;3.72;0.30;;;;;;;17.92;66.09;102325.88;5035353;28;20490;-76
2023/09/15 09:33:08;;;;;;;12.20;2.38;;;;;;;17.97;66.43;102317.84;5043502;28;20490;-74
2023/09/15 09:35:35;;;;;;;1.92;0.30;;;;;;;17.95;65.63;102306.44;5035441;28;20047;-72
2023/09/15 09:38:03;;;;;;;1.95;0.57;;;;;;;18.06;64.98;102309.69;5038657;28;20051;-73
2023/09/15 09:40:32;;;;;;;0.40;0.40;;;;;;;18.10;65.17;102315.75;5040834;28;20131;-73
2023/09/15 09:42:59;;;;;;;3.05;0.30;;;;;;;18.13;64.97;102313.94;5037278;28;20052;-73
2023/09/15 09:45:27;;;;;;;1.25;0.40;;;;;;;18.15;64.91;102305.94;5038791;28;20048;-73
2023/09/15 09:47:54;;;;;;;18.15;1.70;;;;;;;18.21;64.40;102305.78;5040794;28;20053;-73
2023/09/15 09:50:23;;;;;;;0.43;0.30;;;;;;;18.26;64.68;102310.97;5041222;28;20449;-74
2023/09/15 09:52:51;;;;;;;1.15;0.40;;;;;;;18.29;64.58;102303.81;5037324;28;20049;-73
2023/09/15 09:55:18;;;;;;;2.90;0.30;;;;;;;18.32;63.58;102306.38;5044344;28;20048;-76
2023/09/15 09:57:45;;;;;;;0.65;0.30;;;;;;;18.36;63.55;102299.25;5043497;28;20405;-76
2023/09/15 10:00:18;;;;;;;2.47;0.30;;;;;;;18.41;63.45;102297.31;5049480;28;20041;-76
2023/09/15 10:02:45;;;;;;;0.60;0.43;;;;;;;18.45;63.65;102287.53;5037678;28;20072;-74
2023/09/15 10:05:12;;;;;;;0.65;0.40;;;;;;;18.48;63.18;102288.31;5040047;28;20059;-74
2023/09/15 10:07:41;;;;;;;2.05;0.30;;;;;;;18.52;62.85;102289.94;5034400;28;20049;-75
2023/09/15 10:10:09;;;;;;;2.35;0.22;;;;;;;18.55;62.36;102294.28;5038491;28;20106;-74
2023/09/15 10:12:36;;;;;;;1.15;0.40;;;;;;;18.57;61.93;102293.34;5039732;28;20056;-73
2023/09/15 10:15:04;;;;;;;2.65;0.40;;;;;;;18.60;61.00;102297.69;5039077;28;20045;-73
2023/09/15 10:17:33;;;;;;;1.08;0.22;;;;;;;18.62;60.61;102299.38;5040177;28;20053;-73
2023/09/15 10:20:02;;;;;;;1.13;0.47;;;;;;;18.64;60.65;102301.97;5036458;28;20537;-73
2023/09/15 10:22:29;;;;;;;2.58;0.40;;;;;;;18.66;60.70;102302.81;5037990;28;20115;-73
2023/09/15 10:25:00;;;;;;;0.68;0.30;;;;;;;18.66;60.76;102298.38;5039974;28;20057;-73
2023/09/15 10:27:28;;;;;;;0.73;0.30;;;;;;;18.67;60.82;102304.56;5037053;28;20048;-73
2023/09/15 10:30:01;;;;;;;1.52;0.75;;;;;;;18.67;60.24;102299.25;5034572;28;20057;-74
2023/09/15 10:32:36;;;;;;;2.63;0.40;;;;;;;18.70;60.61;102298.28;5036724;28;20064;-74
2023/09/15 10:35:04;;;;;;;1.73;0.30;;;;;;;18.69;60.29;102299.22;5040694;28;20052;-76
2023/09/15 10:37:31;;;;;;;0.50;0.30;;;;;;;18.68;60.32;102302.78;5041176;28;20049;-74
2023/09/15 10:40:00;;;;;;;2.25;0.30;;;;;;;18.67;59.87;102307.22;5039898;28;20045;-72
2023/09/15 10:42:27;;;;;;;2.25;0.30;;;;;;;18.67;60.11;102299.25;5032447;28;20409;-71
2023/09/15 10:44:54;;;;;;;2.50;0.28;;;;;;;18.66;58.81;102306.31;5036134;28;20421;-71
2023/09/15 10:47:22;;;;;;;0.98;0.30;;;;;;;18.66;58.76;102297.50;5039249;28;20045;-72
2023/09/15 10:49:51;;;;;;;2.38;0.20;;;;;;;18.65;58.48;102307.22;5035110;28;20052;-72
2023/09/15 10:52:18;;;;;;;0.80;0.20;;;;;;;18.61;57.79;102289.72;5027626;28;20455;-72
2023/09/15 10:54:45;;;;;;;0.88;0.22;;;;;;;18.62;56.68;102304.69;5037532;28;20040;-73
2023/09/15 10:57:15;;;;;;;10.98;1.02;;;;;;;18.61;57.24;102310.00;5036846;28;20387;-72
2023/09/15 10:59:42;;;;;;;2.47;0.28;;;;;;;18.60;57.97;102311.78;5038976;28;20498;-73
2023/09/15 11:02:10;;;;;;;2.35;0.30;;;;;;;18.58;57.79;102300.34;5036691;28;20055;-71
2023/09/15 11:04:37;;;;;;;5.10;0.30;;;;;;;18.57;58.03;102298.63;5019797;28;20046;-73
2023/09/15 11:07:07;;;;;;;5.00;1.05;;;;;;;18.56;57.67;102299.56;5037593;28;20410;-72
2023/09/15 11:09:35;;;;;;;2.28;0.30;;;;;;;18.55;56.94;102299.59;5035423;28;20477;-73
2023/09/15 11:12:03;;;;;;;4.88;0.43;;;;;;;18.53;56.80;102297.00;5036115;28;20045;-72
2023/09/15 11:14:31;;;;;;;0.82;0.40;;;;;;;18.52;57.32;102297.88;5039607;28;20857;-73
2023/09/15 11:16:58;;;;;;;0.60;0.30;;;;;;;18.51;56.20;102292.66;5040544;28;20045;-73
2023/09/15 11:19:30;;;;;;;1.33;0.20;;;;;;;18.50;56.40;102285.59;5036453;28;20076;-74
2023/09/15 11:21:57;;;;;;;5.47;0.20;;;;;;;18.45;56.68;102282.25;5037408;28;20042;-74
2023/09/15 11:24:24;;;;;;;2.17;0.22;;;;;;;18.48;56.59;102301.53;5038812;28;20041;-73
2023/09/15 11:26:53;;;;;;;8.70;0.47;;;;;;;18.47;56.80;102304.22;5038848;28;20533;-74
2023/09/15 11:29:25;;;;;;;0.88;0.28;;;;;;;18.38;57.19;102289.47;5037840;28;20901;-73